createdAt,value
2019-02-28T00:00:37.204Z,10.70
2019-02-28T00:03:07.479Z,11.57
2019-02-28T00:05:40.203Z,10.45
2019-02-28T00:08:10.378Z,12.00
2019-02-28T00:10:40.552Z,9.60
2019-02-28T00:13:11.031Z,8.90
2019-02-28T00:15:41.186Z,12.37
2019-02-28T00:18:15.255Z,9.10
2019-02-28T00:20:43.143Z,10.75
2019-02-28T00:23:13.743Z,10.58
2019-02-28T00:25:46.144Z,8.48
2019-02-28T00:28:16.331Z,10.10
2019-02-28T00:30:47.752Z,12.53
2019-02-28T00:33:17.946Z,12.90
2019-02-28T00:35:48.089Z,8.95
2019-02-28T00:38:19.813Z,10.00
2019-02-28T00:40:49.963Z,10.90
2019-02-28T00:43:22.318Z,10.23
2019-02-28T00:45:51.935Z,10.82
2019-02-28T00:48:22.831Z,12.50
2019-02-28T00:50:52.982Z,11.93
2019-02-28T00:53:24.376Z,12.45
2019-02-28T00:55:55.929Z,11.68
2019-02-28T00:58:28.626Z,11.85
2019-02-28T01:00:57.992Z,14.70
2019-02-28T01:03:31.412Z,16.27
2019-02-28T01:06:02.362Z,20.77
2019-02-28T01:08:34.118Z,16.40
2019-02-28T01:11:04.382Z,14.85
2019-02-28T01:13:34.537Z,11.35
2019-02-28T01:16:05.013Z,18.73
2019-02-28T01:18:35.457Z,15.30
2019-02-28T01:21:05.586Z,12.25
2019-02-28T01:23:36.848Z,11.15
2019-02-28T01:26:07.015Z,17.25
2019-02-28T01:28:37.143Z,11.68
2019-02-28T01:31:11.681Z,13.80
2019-02-28T01:33:42.415Z,15.53
2019-02-28T01:36:15.559Z,15.40
2019-02-28T01:38:45.997Z,16.93
2019-02-28T01:41:16.168Z,16.65
2019-02-28T01:43:46.279Z,11.90
2019-02-28T01:46:17.924Z,14.80
2019-02-28T01:48:48.710Z,11.18
2019-02-28T01:51:21.121Z,10.60
2019-02-28T01:53:53.554Z,13.25
2019-02-28T01:56:23.124Z,16.20
2019-02-28T01:58:53.253Z,13.55
2019-02-28T02:01:23.427Z,10.40
2019-02-28T02:03:56.057Z,13.62
2019-02-28T02:06:28.005Z,16.42
2019-02-28T02:08:58.776Z,15.43
2019-02-28T02:11:28.919Z,10.65
2019-02-28T02:14:00.588Z,16.65
2019-02-28T02:16:30.750Z,11.43
2019-02-28T02:19:00.895Z,12.37
2019-02-28T02:21:35.655Z,10.25
2019-02-28T02:24:07.531Z,10.32
2019-02-28T02:26:38.157Z,16.32
2019-02-28T02:29:10.830Z,9.73
2019-02-28T02:31:43.570Z,12.90
2019-02-28T02:34:16.033Z,12.88
2019-02-28T02:36:53.139Z,10.90
2019-02-28T02:39:20.128Z,11.63
2019-02-28T02:41:50.280Z,10.45
2019-02-28T02:44:20.411Z,14.40
2019-02-28T02:46:55.574Z,10.18
2019-02-28T02:49:22.799Z,10.93
2019-02-28T02:51:53.699Z,18.12
2019-02-28T02:54:23.955Z,10.00
2019-02-28T02:56:54.084Z,11.22
2019-02-28T02:59:24.347Z,10.10
2019-02-28T03:01:56.175Z,11.63
2019-02-28T03:04:26.372Z,9.30
2019-02-28T03:06:56.514Z,11.38
2019-02-28T03:09:27.938Z,12.35
2019-02-28T03:12:00.438Z,16.20
2019-02-28T03:14:30.635Z,9.60
2019-02-28T03:17:00.787Z,12.00
2019-02-28T03:19:33.693Z,8.63
2019-02-28T03:22:03.994Z,13.10
2019-02-28T03:24:34.480Z,9.70
2019-02-28T03:27:04.980Z,10.90
2019-02-28T03:29:35.137Z,13.22
2019-02-28T03:32:05.316Z,12.30
2019-02-28T03:34:35.493Z,10.45
2019-02-28T03:37:05.723Z,11.08
2019-02-28T03:39:36.871Z,13.20
2019-02-28T03:42:09.060Z,13.00
2019-02-28T03:44:39.612Z,12.75
2019-02-28T03:47:09.819Z,8.73
2019-02-28T03:49:48.490Z,10.10
2019-02-28T03:52:12.518Z,10.90
2019-02-28T03:54:43.292Z,13.25
2019-02-28T03:57:17.347Z,12.00
2019-02-28T03:59:55.371Z,9.38
2019-02-28T04:02:25.192Z,13.85
2019-02-28T04:04:56.079Z,7.53
2019-02-28T04:07:27.515Z,9.65
2019-02-28T04:09:59.083Z,20.52
2019-02-28T04:12:29.325Z,9.65
2019-02-28T04:14:59.556Z,11.12
2019-02-28T04:17:31.781Z,10.00
2019-02-28T04:20:02.425Z,9.53
2019-02-28T04:22:32.547Z,9.98
2019-02-28T04:25:03.892Z,9.88
2019-02-28T04:27:34.424Z,9.88
2019-02-28T04:30:07.969Z,10.60
2019-02-28T04:32:37.336Z,12.05
2019-02-28T04:35:07.490Z,9.13
2019-02-28T04:37:41.262Z,8.30
2019-02-28T04:40:10.125Z,9.65
2019-02-28T04:42:41.911Z,7.97
2019-02-28T04:45:12.122Z,8.25
2019-02-28T04:47:42.260Z,8.38
2019-02-28T04:50:12.886Z,9.20
2019-02-28T04:52:48.043Z,9.15
2019-02-28T04:55:15.802Z,6.65
2019-02-28T04:57:47.327Z,13.80
2019-02-28T05:00:21.160Z,9.90
2019-02-28T05:02:54.814Z,9.70
2019-02-28T05:05:23.159Z,11.03
2019-02-28T05:07:54.566Z,10.45
2019-02-28T05:10:26.525Z,9.25
2019-02-28T05:13:01.701Z,11.20
2019-02-28T05:15:37.322Z,9.98
2019-02-28T05:18:06.501Z,9.30
2019-02-28T05:20:37.021Z,11.28
2019-02-28T05:23:07.974Z,11.93
2019-02-28T05:25:39.965Z,12.00
2019-02-28T05:28:12.408Z,10.48
2019-02-28T05:30:42.976Z,10.70
2019-02-28T05:33:17.372Z,9.85
2019-02-28T05:35:50.083Z,12.45
2019-02-28T05:38:22.713Z,8.70
2019-02-28T05:40:56.827Z,10.15
2019-02-28T05:43:29.263Z,8.55
2019-02-28T05:46:02.168Z,7.10
2019-02-28T05:48:35.333Z,8.93
2019-02-28T05:51:04.694Z,9.73
2019-02-28T05:53:36.569Z,11.55
2019-02-28T05:56:06.738Z,11.18
2019-02-28T05:58:36.949Z,13.78
2019-02-28T06:01:08.700Z,9.83
2019-02-28T06:03:39.056Z,8.60
2019-02-28T06:06:09.592Z,14.07
2019-02-28T06:08:40.149Z,10.63
2019-02-28T06:11:10.400Z,8.30
2019-02-28T06:13:40.596Z,13.58
2019-02-28T06:16:12.307Z,22.93
2019-02-28T06:18:43.679Z,16.07
2019-02-28T06:21:16.069Z,26.68
2019-02-28T06:23:46.651Z,16.45
2019-02-28T06:26:16.918Z,13.22
2019-02-28T06:28:47.112Z,12.93
2019-02-28T06:31:17.247Z,15.60
2019-02-28T06:33:47.708Z,11.83
2019-02-28T06:36:18.008Z,14.87
2019-02-28T06:38:48.171Z,14.85
2019-02-28T06:41:22.262Z,18.02
2019-02-28T06:43:53.075Z,24.12
2019-02-28T06:46:24.409Z,24.63
2019-02-28T06:49:01.595Z,19.95
2019-02-28T06:51:26.802Z,10.10
2019-02-28T06:53:57.099Z,20.85
2019-02-28T06:56:28.296Z,16.05
2019-02-28T06:59:00.527Z,9.33
2019-02-28T07:01:30.726Z,11.55
2019-02-28T07:04:01.964Z,11.25
2019-02-28T07:06:35.686Z,9.65
2019-02-28T07:09:05.474Z,12.03
2019-02-28T07:11:36.101Z,16.20
2019-02-28T07:14:12.830Z,16.35
2019-02-28T07:16:41.078Z,9.48
2019-02-28T07:19:11.464Z,23.12
2019-02-28T07:21:44.438Z,9.95
2019-02-28T07:24:16.309Z,13.25
2019-02-28T07:26:48.226Z,13.15
2019-02-28T07:29:18.407Z,11.95
2019-02-28T07:31:48.583Z,11.33
2019-02-28T07:34:23.789Z,12.43
2019-02-28T07:36:53.190Z,14.50
2019-02-28T07:39:23.784Z,16.85
2019-02-28T07:41:58.899Z,21.77
2019-02-28T07:44:28.851Z,11.25
2019-02-28T07:46:59.056Z,12.93
2019-02-28T07:49:29.227Z,18.05
2019-02-28T07:51:59.959Z,16.80
2019-02-28T07:54:31.366Z,12.47
2019-02-28T07:57:01.739Z,12.30
2019-02-28T07:59:31.910Z,10.45
2019-02-28T08:02:04.484Z,12.68
2019-02-28T08:04:35.751Z,10.88
2019-02-28T08:07:07.161Z,13.48
2019-02-28T08:09:40.609Z,11.90
2019-02-28T08:12:09.763Z,12.40
2019-02-28T08:14:43.678Z,12.30
2019-02-28T08:17:17.083Z,13.85
2019-02-28T08:19:47.263Z,11.28
2019-02-28T08:22:23.344Z,16.00
2019-02-28T08:24:49.313Z,10.20
2019-02-28T08:27:20.013Z,12.15
2019-02-28T08:29:50.209Z,13.50
2019-02-28T08:32:21.524Z,12.82
2019-02-28T08:34:55.583Z,14.90
2019-02-28T08:37:26.316Z,11.53
2019-02-28T08:39:56.491Z,14.05
2019-02-28T08:42:27.033Z,13.85
2019-02-28T08:45:13.308Z,14.07
2019-02-28T08:47:43.562Z,16.20
2019-02-28T08:50:19.079Z,13.13
2019-02-28T08:52:49.066Z,17.15
2019-02-28T08:55:27.920Z,12.63
2019-02-28T08:57:55.877Z,16.95
2019-02-28T09:00:31.339Z,12.07
2019-02-28T09:03:00.644Z,13.88
2019-02-28T09:05:32.495Z,17.17
2019-02-28T09:08:03.560Z,13.40
2019-02-28T09:10:34.144Z,13.40
2019-02-28T09:13:07.951Z,15.30
2019-02-28T09:15:37.051Z,19.05
2019-02-28T09:18:09.061Z,14.83
2019-02-28T09:20:41.418Z,15.30
2019-02-28T09:23:11.675Z,19.12
2019-02-28T09:25:41.896Z,22.40
2019-02-28T09:28:13.185Z,18.10
2019-02-28T09:30:46.090Z,21.62
2019-02-28T09:33:19.302Z,16.23
2019-02-28T09:35:49.602Z,13.55
2019-02-28T09:38:20.647Z,16.40
2019-02-28T09:41:01.368Z,20.27
2019-02-28T09:43:31.765Z,16.42
2019-02-28T09:46:03.663Z,14.63
2019-02-28T09:48:39.309Z,20.85
2019-02-28T09:51:11.609Z,15.80
2019-02-28T09:53:42.351Z,19.90
2019-02-28T09:56:14.696Z,28.07
2019-02-28T09:58:45.022Z,27.37
2019-02-28T10:01:15.309Z,23.07
2019-02-28T10:03:45.650Z,20.62
2019-02-28T10:06:17.976Z,29.52
2019-02-28T10:08:48.213Z,68.78
2019-02-28T10:11:18.384Z,22.45
2019-02-28T10:13:49.600Z,18.70
2019-02-28T10:16:20.514Z,17.57
2019-02-28T10:18:51.094Z,19.95
2019-02-28T10:21:21.265Z,18.17
2019-02-28T10:23:57.066Z,20.05
2019-02-28T10:26:26.985Z,17.73
2019-02-28T10:29:01.190Z,20.30
2019-02-28T10:31:37.353Z,23.12
2019-02-28T10:34:05.351Z,18.77
2019-02-28T10:36:36.963Z,18.02
2019-02-28T10:39:08.915Z,15.38
2019-02-28T10:41:41.300Z,22.60
2019-02-28T10:44:12.059Z,17.30
2019-02-28T10:47:29.624Z,15.40
2019-02-28T10:50:00.278Z,13.55
2019-02-28T10:52:30.826Z,14.73
2019-02-28T10:55:06.263Z,13.83
2019-02-28T10:57:40.688Z,14.63
2019-02-28T11:00:20.106Z,12.05
2019-02-28T11:02:54.149Z,12.73
2019-02-28T11:05:27.492Z,12.85
2019-02-28T11:07:58.234Z,18.25
2019-02-28T11:10:35.537Z,15.30
2019-02-28T11:13:07.059Z,11.35
2019-02-28T11:15:37.945Z,11.40
2019-02-28T11:18:11.089Z,10.45
2019-02-28T11:20:42.794Z,10.58
2019-02-28T11:23:15.011Z,11.93
2019-02-28T11:25:45.859Z,11.73
2019-02-28T11:28:16.347Z,11.85
2019-02-28T11:30:46.731Z,19.25
2019-02-28T11:33:17.206Z,14.07
2019-02-28T11:35:48.800Z,13.62
2019-02-28T11:38:21.722Z,16.30
2019-02-28T11:40:57.226Z,12.15
2019-02-28T11:43:26.689Z,10.63
2019-02-28T11:46:00.838Z,23.98
2019-02-28T11:48:29.625Z,11.40
2019-02-28T11:50:59.814Z,9.18
2019-02-28T11:53:29.992Z,11.50
2019-02-28T11:56:00.614Z,13.95
2019-02-28T11:58:31.840Z,10.38
2019-02-28T12:01:02.366Z,10.00
2019-02-28T12:03:35.462Z,11.33
2019-02-28T12:06:04.618Z,13.53
2019-02-28T12:08:34.815Z,19.27
2019-02-28T12:11:05.073Z,21.70
2019-02-28T12:13:35.267Z,7.08
2019-02-28T12:16:05.703Z,8.13
2019-02-28T12:18:39.502Z,9.05
2019-02-28T12:21:09.794Z,6.60
2019-02-28T12:23:42.475Z,8.63
2019-02-28T12:26:21.770Z,7.58
2019-02-28T12:28:54.410Z,6.83
2019-02-28T12:31:32.045Z,11.30
2019-02-28T12:34:02.419Z,13.40
2019-02-28T12:36:34.953Z,6.95
2019-02-28T12:39:07.343Z,7.15
2019-02-28T12:41:37.588Z,11.93
2019-02-28T12:44:08.463Z,12.47
2019-02-28T12:46:38.803Z,7.37
2019-02-28T12:49:09.016Z,14.38
2019-02-28T12:51:39.666Z,13.05
2019-02-28T12:54:10.534Z,9.65
2019-02-28T12:56:40.708Z,8.78
2019-02-28T12:59:10.966Z,9.88
2019-02-28T13:01:41.437Z,17.90
2019-02-28T13:04:11.837Z,8.75
2019-02-28T13:06:42.054Z,9.15
2019-02-28T13:09:13.613Z,10.40
2019-02-28T13:11:48.030Z,8.73
2019-02-28T13:14:19.667Z,10.63
2019-02-28T13:20:51.379Z,10.60
2019-02-28T13:23:22.566Z,12.68
2019-02-28T13:25:59.206Z,8.35
2019-02-28T13:28:24.805Z,9.58
2019-02-28T13:30:55.563Z,9.88
2019-02-28T13:33:25.948Z,10.65
2019-02-28T13:35:56.270Z,10.40
2019-02-28T13:38:26.941Z,7.50
2019-02-28T13:40:57.719Z,10.80
2019-02-28T13:43:28.935Z,8.10
2019-02-28T13:46:02.803Z,12.03
2019-02-28T13:48:34.814Z,10.20
2019-02-28T13:51:08.892Z,12.10
2019-02-28T13:53:39.181Z,10.20
2019-02-28T13:56:10.121Z,13.70
2019-02-28T13:58:40.461Z,10.78
2019-02-28T14:01:10.704Z,11.85
2019-02-28T14:03:42.227Z,11.08
2019-02-28T14:06:18.922Z,8.78
2019-02-28T14:08:45.991Z,11.85
2019-02-28T14:11:17.772Z,13.83
2019-02-28T14:13:48.095Z,14.57
2019-02-28T14:16:19.441Z,12.47
2019-02-28T14:18:49.575Z,14.07
2019-02-28T14:21:19.753Z,10.63
2019-02-28T14:23:52.467Z,9.93
2019-02-28T14:26:21.877Z,12.67
2019-02-28T14:28:52.092Z,12.83
2019-02-28T14:31:23.501Z,9.83
2019-02-28T14:33:55.233Z,10.10
2019-02-28T14:36:25.827Z,12.07
2019-02-28T14:38:56.459Z,10.43
2019-02-28T14:41:27.957Z,13.60
2019-02-28T14:43:58.619Z,10.27
2019-02-28T14:46:28.871Z,16.53
2019-02-28T14:48:59.083Z,11.10
2019-02-28T14:51:29.438Z,12.93
2019-02-28T14:53:59.636Z,8.10
2019-02-28T14:56:29.763Z,14.73
2019-02-28T14:59:01.260Z,8.80
2019-02-28T15:01:31.425Z,10.07
2019-02-28T15:04:02.705Z,14.00
2019-02-28T15:06:33.085Z,9.75
2019-02-28T15:09:04.508Z,11.80
2019-02-28T15:11:34.828Z,11.83
2019-02-28T15:14:27.158Z,10.30
2019-02-28T15:17:02.016Z,15.88
2019-02-28T15:19:33.223Z,12.45
2019-02-28T15:22:05.331Z,10.40
2019-02-28T15:24:35.972Z,11.05
2019-02-28T15:27:07.561Z,8.98
2019-02-28T15:29:38.494Z,14.20
2019-02-28T15:32:08.666Z,11.28
2019-02-28T15:34:41.290Z,7.83
2019-02-28T15:37:11.299Z,9.40
2019-02-28T15:39:41.488Z,9.83
2019-02-28T15:42:11.691Z,18.73
2019-02-28T15:44:41.887Z,9.53
2019-02-28T15:47:13.165Z,9.15
2019-02-28T15:49:43.423Z,10.25
2019-02-28T15:52:13.683Z,11.60
2019-02-28T15:54:43.914Z,10.10
2019-02-28T15:57:16.593Z,8.75
2019-02-28T15:59:49.833Z,11.43
2019-02-28T16:02:21.582Z,10.53
2019-02-28T16:04:53.450Z,10.20
2019-02-28T16:07:24.988Z,13.22
2019-02-28T16:09:57.072Z,13.60
2019-02-28T16:12:27.246Z,13.75
2019-02-28T16:14:57.592Z,13.25
2019-02-28T16:17:29.281Z,14.80
2019-02-28T16:20:00.740Z,16.67
2019-02-28T16:22:30.952Z,13.72
2019-02-28T16:25:04.707Z,19.90
2019-02-28T16:27:36.567Z,22.02
2019-02-28T16:30:08.201Z,24.45
2019-02-28T16:32:38.527Z,18.95
2019-02-28T16:35:08.954Z,16.12
2019-02-28T16:37:39.240Z,17.48
2019-02-28T16:40:11.595Z,17.30
2019-02-28T16:42:43.373Z,18.92
2019-02-28T16:45:29.035Z,16.30
2019-02-28T16:48:03.056Z,21.23
2019-02-28T16:50:32.817Z,17.60
2019-02-28T16:53:03.160Z,16.65
2019-02-28T16:55:33.330Z,15.38
2019-02-28T16:58:03.542Z,17.82
2019-02-28T17:00:34.218Z,20.00
2019-02-28T17:03:07.291Z,13.62
2019-02-28T17:05:40.275Z,16.90
2019-02-28T17:08:12.164Z,18.35
2019-02-28T17:10:44.298Z,17.23
2019-02-28T17:13:39.525Z,18.10
2019-02-28T17:16:28.904Z,20.30
2019-02-28T17:18:59.210Z,20.77
2019-02-28T17:21:29.411Z,16.87
2019-02-28T17:24:00.061Z,21.12
2019-02-28T17:27:07.493Z,20.55
2019-02-28T17:29:57.640Z,22.48
2019-02-28T17:32:32.265Z,16.77
2019-02-28T17:35:02.033Z,17.45
2019-02-28T17:37:32.269Z,14.75
2019-02-28T17:40:02.507Z,14.25
2019-02-28T17:42:32.748Z,14.20
2019-02-28T17:45:18.311Z,12.68
2019-02-28T17:48:32.387Z,12.80
2019-02-28T17:51:30.051Z,11.80
2019-02-28T17:54:36.325Z,12.05
2019-02-28T17:57:53.566Z,8.45
2019-02-28T18:01:29.920Z,13.95
2019-02-28T18:04:40.344Z,10.38
2019-02-28T18:07:53.185Z,9.60
2019-02-28T18:11:03.870Z,12.63
2019-02-28T18:14:35.102Z,9.20
2019-02-28T18:18:05.450Z,11.03
2019-02-28T18:21:22.909Z,13.90
2019-02-28T18:25:00.711Z,14.85
2019-02-28T18:27:46.765Z,8.70
2019-02-28T18:30:56.864Z,13.53
2019-02-28T18:33:30.527Z,15.90
2019-02-28T18:36:01.102Z,16.82
2019-02-28T18:38:40.488Z,12.15
2019-02-28T18:41:11.727Z,19.52
2019-02-28T18:43:43.280Z,16.00
2019-02-28T18:46:14.859Z,18.05
2019-02-28T18:48:51.215Z,13.88
2019-02-28T18:51:21.157Z,15.88
2019-02-28T18:53:52.058Z,13.98
2019-02-28T18:56:22.670Z,15.60
2019-02-28T18:58:53.969Z,15.00
2019-02-28T19:01:26.170Z,18.90
2019-02-28T19:03:59.220Z,15.80
2019-02-28T19:06:31.373Z,15.15
2019-02-28T19:09:03.277Z,11.08
2019-02-28T19:11:36.087Z,12.90
2019-02-28T19:14:10.962Z,13.50
2019-02-28T19:16:48.945Z,11.70
2019-02-28T19:19:22.128Z,11.08
2019-02-28T19:21:52.374Z,10.28
2019-02-28T19:24:22.723Z,10.03
2019-02-28T19:26:55.525Z,13.45
2019-02-28T19:29:27.027Z,11.03
2019-02-28T19:31:57.317Z,7.72
2019-02-28T19:34:27.874Z,10.38
2019-02-28T19:37:01.094Z,9.35
2019-02-28T19:39:31.673Z,7.97
2019-02-28T19:42:04.953Z,8.75
2019-02-28T19:44:37.931Z,7.97
2019-02-28T19:47:50.003Z,7.97
2019-02-28T19:50:27.246Z,7.33
2019-02-28T19:53:21.893Z,11.08
2019-02-28T19:56:12.179Z,11.28
2019-02-28T19:59:06.197Z,6.05
2019-02-28T20:05:14.391Z,6.15
2019-02-28T20:08:06.073Z,8.73
2019-02-28T20:10:39.778Z,7.65
2019-02-28T20:13:21.421Z,7.60
2019-02-28T20:16:10.962Z,4.42
2019-02-28T20:18:50.626Z,4.83
2019-02-28T20:21:25.264Z,6.67
2019-02-28T20:23:56.065Z,6.35
2019-02-28T20:26:30.044Z,6.72
2019-02-28T20:29:04.504Z,5.03
2019-02-28T20:31:55.571Z,3.92
2019-02-28T20:34:30.464Z,6.92
2019-02-28T20:37:02.490Z,6.60
2019-02-28T20:39:35.847Z,4.33
2019-02-28T20:42:15.522Z,3.85
2019-02-28T20:44:51.566Z,7.80
2019-02-28T20:47:24.756Z,7.22
2019-02-28T20:50:05.903Z,4.12
2019-02-28T20:52:47.345Z,4.22
2019-02-28T20:55:17.545Z,9.03
2019-02-28T20:57:49.484Z,8.58
2019-02-28T21:00:32.122Z,10.75
2019-02-28T21:03:03.247Z,5.45
2019-02-28T21:05:37.254Z,3.92
2019-02-28T21:08:12.107Z,6.90
2019-02-28T21:10:43.860Z,8.60
2019-02-28T21:13:18.888Z,5.50
2019-02-28T21:15:54.153Z,7.75
2019-02-28T21:18:24.717Z,5.33
2019-02-28T21:20:57.512Z,4.08
2019-02-28T21:23:28.140Z,9.28
2019-02-28T21:26:02.283Z,3.00
2019-02-28T21:28:32.547Z,5.58
2019-02-28T21:31:06.304Z,5.10
2019-02-28T21:33:36.646Z,10.88
2019-02-28T21:36:14.057Z,6.40
2019-02-28T21:38:46.631Z,10.13
2019-02-28T21:41:23.203Z,7.37
2019-02-28T21:43:57.686Z,5.20
2019-02-28T21:46:35.325Z,5.47
2019-02-28T21:49:07.009Z,10.50
2019-02-28T21:51:39.950Z,8.13
2019-02-28T21:54:12.229Z,6.22
2019-02-28T21:56:45.620Z,5.95
2019-02-28T21:59:15.826Z,10.13
2019-02-28T22:01:47.448Z,2.87
2019-02-28T22:04:19.927Z,5.65
2019-02-28T22:06:50.123Z,8.40
2019-02-28T22:09:30.579Z,5.00
2019-02-28T22:12:01.954Z,4.58
2019-02-28T22:14:35.096Z,7.78
2019-02-28T22:17:08.422Z,8.20
2019-02-28T22:19:40.478Z,3.40
2019-02-28T22:22:15.015Z,4.87
2019-02-28T22:24:56.692Z,3.95
2019-02-28T22:27:34.240Z,3.40
2019-02-28T22:30:29.102Z,4.12
2019-02-28T22:33:08.648Z,4.70
2019-02-28T22:35:45.090Z,6.53
2019-02-28T22:38:15.411Z,6.70
2019-02-28T22:40:47.374Z,4.95
2019-02-28T22:43:19.050Z,5.90
2019-02-28T22:45:50.693Z,4.25
2019-02-28T22:48:26.283Z,3.42
2019-02-28T22:50:58.035Z,5.92
2019-02-28T22:53:29.655Z,6.05
2019-02-28T22:56:03.027Z,3.25
2019-02-28T22:58:33.735Z,3.17
2019-02-28T23:01:15.596Z,5.22
2019-02-28T23:03:47.439Z,5.62
2019-02-28T23:06:18.821Z,5.50
2019-02-28T23:08:53.951Z,5.85
2019-02-28T23:11:26.228Z,5.75
2019-02-28T23:13:59.362Z,7.53
2019-02-28T23:16:31.231Z,4.37
2019-02-28T23:19:03.270Z,5.97
2019-02-28T23:21:35.167Z,3.02
2019-02-28T23:24:10.003Z,5.33
2019-02-28T23:27:14.485Z,7.83
2019-02-28T23:30:23.609Z,4.72
2019-02-28T23:32:59.675Z,7.08
2019-02-28T23:35:40.772Z,5.65
2019-02-28T23:38:20.335Z,6.65
2019-02-28T23:40:58.436Z,7.90
2019-02-28T23:43:29.027Z,4.72
2019-02-28T23:45:59.615Z,5.62
2019-02-28T23:48:32.757Z,10.23
2019-02-28T23:51:03.810Z,5.83
2019-02-28T23:53:36.903Z,5.10
2019-02-28T23:56:10.551Z,7.97
2019-02-28T23:58:43.910Z,5.03
